createdAt,value
2019-04-14T00:00:05.542Z,18.23
2019-04-14T00:01:28.328Z,17.17
2019-04-14T00:02:53.302Z,18.67
2019-04-14T00:04:14.287Z,17.70
2019-04-14T00:05:18.931Z,16.93
2019-04-14T00:06:22.797Z,18.43
2019-04-14T00:07:27.565Z,21.10
2019-04-14T00:08:32.611Z,18.13
2019-04-14T00:09:36.357Z,18.80
2019-04-14T00:10:40.070Z,18.13
2019-04-14T00:11:45.869Z,17.63
2019-04-14T00:12:49.769Z,18.67
2019-04-14T00:13:54.465Z,20.07
2019-04-14T00:14:58.166Z,18.37
2019-04-14T00:16:03.056Z,19.43
2019-04-14T00:17:07.153Z,17.80
2019-04-14T00:18:11.830Z,18.93
2019-04-14T00:19:15.852Z,19.23
2019-04-14T00:20:20.416Z,18.33
2019-04-14T00:21:24.362Z,17.10
2019-04-14T00:22:29.537Z,17.47
2019-04-14T00:23:33.325Z,18.03
2019-04-14T00:24:38.068Z,17.87
2019-04-14T00:25:41.813Z,17.10
2019-04-14T00:26:46.613Z,18.50
2019-04-14T00:27:50.352Z,18.50
2019-04-14T00:28:54.000Z,18.20
2019-04-14T00:29:57.576Z,17.60
2019-04-14T00:31:02.279Z,16.83
2019-04-14T00:32:07.256Z,16.93
2019-04-14T00:33:12.507Z,17.33
2019-04-14T00:34:42.048Z,17.63
2019-04-14T00:36:10.830Z,18.27
2019-04-14T00:37:23.494Z,19.77
2019-04-14T00:38:30.711Z,17.63
2019-04-14T00:39:38.024Z,19.60
2019-04-14T00:40:47.632Z,17.57
2019-04-14T00:42:04.828Z,17.03
2019-04-14T00:43:17.801Z,19.13
2019-04-14T00:44:47.381Z,18.37
2019-04-14T00:46:00.560Z,17.23
2019-04-14T00:47:11.425Z,17.60
2019-04-14T00:48:20.659Z,17.07
2019-04-14T00:49:24.708Z,17.30
2019-04-14T00:50:29.736Z,16.23
2019-04-14T00:51:36.402Z,17.80
2019-04-14T00:52:39.416Z,16.20
2019-04-14T00:53:43.098Z,16.37
2019-04-14T00:54:47.760Z,16.20
2019-04-14T00:55:51.596Z,16.87
2019-04-14T00:56:56.255Z,16.30
2019-04-14T00:58:00.096Z,16.13
2019-04-14T00:59:04.687Z,18.43
2019-04-14T01:00:10.298Z,15.97
2019-04-14T01:01:15.390Z,18.77
2019-04-14T01:02:19.178Z,15.57
2019-04-14T01:03:22.763Z,16.77
2019-04-14T01:04:27.296Z,16.47
2019-04-14T01:05:32.958Z,16.37
2019-04-14T01:06:36.346Z,19.47
2019-04-14T01:07:41.211Z,15.53
2019-04-14T01:08:44.964Z,16.00
2019-04-14T01:09:48.865Z,16.03
2019-04-14T01:10:53.945Z,19.30
2019-04-14T01:11:57.764Z,15.80
2019-04-14T01:13:01.312Z,16.23
2019-04-14T01:14:05.839Z,15.77
2019-04-14T01:15:09.950Z,17.47
2019-04-14T01:16:17.605Z,17.37
2019-04-14T01:17:19.895Z,18.37
2019-04-14T01:18:23.684Z,16.10
2019-04-14T01:19:27.294Z,16.30
2019-04-14T01:20:31.828Z,14.93
2019-04-14T01:21:35.560Z,14.77
2019-04-14T01:22:40.123Z,15.27
2019-04-14T01:23:43.819Z,13.30
2019-04-14T01:24:47.393Z,15.40
2019-04-14T01:25:51.995Z,15.50
2019-04-14T01:26:55.713Z,15.30
2019-04-14T01:28:00.229Z,13.37
2019-04-14T01:29:04.143Z,14.60
2019-04-14T01:30:08.824Z,14.33
2019-04-14T01:31:12.632Z,16.90
2019-04-14T01:32:16.187Z,14.60
2019-04-14T01:33:20.552Z,15.63
2019-04-14T01:34:24.198Z,14.77
2019-04-14T01:35:29.179Z,15.47
2019-04-14T01:36:33.079Z,14.63
2019-04-14T01:37:37.592Z,15.13
2019-04-14T01:38:41.414Z,15.47
2019-04-14T01:39:45.982Z,14.37
2019-04-14T01:40:50.934Z,16.27
2019-04-14T01:41:54.779Z,15.63
2019-04-14T01:42:59.495Z,14.67
2019-04-14T01:44:03.218Z,13.83
2019-04-14T01:45:07.937Z,15.13
2019-04-14T01:46:19.640Z,13.77
2019-04-14T01:47:18.099Z,14.63
2019-04-14T01:48:21.877Z,13.20
2019-04-14T01:49:25.469Z,15.57
2019-04-14T01:50:47.410Z,15.43
2019-04-14T01:52:10.350Z,15.63
2019-04-14T01:53:21.206Z,15.17
2019-04-14T01:54:45.192Z,15.60
2019-04-14T01:56:03.499Z,13.53
2019-04-14T01:57:27.157Z,14.43
2019-04-14T01:58:51.653Z,14.27
2019-04-14T01:59:55.323Z,15.37
2019-04-14T02:01:18.041Z,14.50
2019-04-14T02:02:24.577Z,14.43
2019-04-14T02:03:28.451Z,15.37
2019-04-14T02:04:32.017Z,15.37
2019-04-14T02:05:36.437Z,15.57
2019-04-14T02:06:40.195Z,15.73
2019-04-14T02:07:45.069Z,15.43
2019-04-14T02:08:50.004Z,15.60
2019-04-14T02:09:53.727Z,14.53
2019-04-14T02:10:58.423Z,14.37
2019-04-14T02:12:03.740Z,16.00
2019-04-14T02:13:07.463Z,14.10
2019-04-14T02:14:11.047Z,15.13
2019-04-14T02:15:15.490Z,14.47
2019-04-14T02:16:29.220Z,16.20
2019-04-14T02:17:24.651Z,14.97
2019-04-14T02:18:29.566Z,15.37
2019-04-14T02:19:33.427Z,15.00
2019-04-14T02:20:38.111Z,15.13
2019-04-14T02:21:43.325Z,15.13
2019-04-14T02:22:48.372Z,14.73
2019-04-14T02:23:52.209Z,16.17
2019-04-14T02:24:57.000Z,13.77
2019-04-14T02:26:01.953Z,17.47
2019-04-14T02:27:05.886Z,15.63
2019-04-14T02:28:09.515Z,13.80
2019-04-14T02:29:14.294Z,14.67
2019-04-14T02:30:23.072Z,14.50
2019-04-14T02:31:48.522Z,13.57
2019-04-14T02:32:56.809Z,16.77
2019-04-14T02:34:19.185Z,14.10
2019-04-14T02:35:25.617Z,15.60
2019-04-14T02:36:21.799Z,14.53
2019-04-14T02:37:24.159Z,15.23
2019-04-14T02:39:33.861Z,16.53
2019-04-14T02:40:38.860Z,13.87
2019-04-14T02:42:46.747Z,17.47
2019-04-14T02:43:52.007Z,16.20
2019-04-14T02:44:51.802Z,16.37
2019-04-14T02:45:59.266Z,16.10
2019-04-14T02:49:36.847Z,16.30
2019-04-14T02:50:43.722Z,16.63
2019-04-14T02:51:40.126Z,15.30
2019-04-14T02:52:54.742Z,15.37
2019-04-14T02:54:59.874Z,14.83
2019-04-14T02:56:16.431Z,15.43
2019-04-14T02:57:20.811Z,17.30
2019-04-14T02:58:20.488Z,14.50
2019-04-14T02:59:22.350Z,15.00
2019-04-14T03:00:31.620Z,14.27
2019-04-14T03:01:50.774Z,13.50
2019-04-14T03:02:41.415Z,16.27
2019-04-14T03:03:43.072Z,17.50
2019-04-14T03:04:54.772Z,15.80
2019-04-14T03:06:05.693Z,16.67
2019-04-14T03:10:22.312Z,15.83
2019-04-14T03:11:25.350Z,15.57
2019-04-14T03:12:31.649Z,16.67
2019-04-14T03:14:43.489Z,15.47
2019-04-14T03:17:19.304Z,14.93
2019-04-14T03:18:31.876Z,14.07
2019-04-14T03:19:43.991Z,15.53
2019-04-14T03:20:59.489Z,15.27
2019-04-14T03:22:37.071Z,15.97
2019-04-14T03:24:39.311Z,18.53
2019-04-14T03:26:21.210Z,16.67
2019-04-14T03:28:44.189Z,16.07
2019-04-14T03:30:23.181Z,15.93
2019-04-14T03:31:41.017Z,17.43
2019-04-14T03:32:49.354Z,17.27
2019-04-14T03:33:48.970Z,17.33
2019-04-14T03:34:44.234Z,17.13
2019-04-14T03:36:04.882Z,18.50
2019-04-14T03:37:54.147Z,15.80
2019-04-14T03:39:57.254Z,18.77
2019-04-14T03:41:08.816Z,17.50
2019-04-14T03:42:08.558Z,18.47
2019-04-14T03:43:22.630Z,18.43
2019-04-14T03:44:25.800Z,19.23
2019-04-14T03:45:28.301Z,16.83
2019-04-14T03:47:37.208Z,18.57
2019-04-14T03:50:02.508Z,18.67
2019-04-14T03:50:55.647Z,21.40
2019-04-14T03:52:25.328Z,18.17
2019-04-14T03:53:13.931Z,18.17
2019-04-14T03:53:58.993Z,16.40
2019-04-14T03:55:01.296Z,15.17
2019-04-14T03:56:12.622Z,15.80
2019-04-14T03:57:14.928Z,16.40
2019-04-14T03:58:18.545Z,16.47
2019-04-14T03:59:22.226Z,15.90
2019-04-14T04:00:27.003Z,16.70
2019-04-14T04:01:30.778Z,17.83
2019-04-14T04:02:34.414Z,16.23
2019-04-14T04:03:39.174Z,16.73
2019-04-14T04:04:42.920Z,16.17
2019-04-14T04:05:47.786Z,16.57
2019-04-14T04:06:51.578Z,17.07
2019-04-14T04:07:56.040Z,16.33
2019-04-14T04:08:59.739Z,17.63
2019-04-14T04:10:09.345Z,18.00
2019-04-14T04:11:12.969Z,17.33
2019-04-14T04:12:16.619Z,16.40
2019-04-14T04:13:21.461Z,15.53
2019-04-14T04:14:25.228Z,17.20
2019-04-14T04:15:29.962Z,18.43
2019-04-14T04:16:54.847Z,17.77
2019-04-14T04:18:04.876Z,19.90
2019-04-14T04:19:16.793Z,16.03
2019-04-14T04:20:39.180Z,15.50
2019-04-14T04:22:04.419Z,16.33
2019-04-14T04:23:20.476Z,17.10
2019-04-14T04:24:44.089Z,15.10
2019-04-14T04:25:53.002Z,15.83
2019-04-14T04:27:07.607Z,16.80
2019-04-14T04:28:26.097Z,17.67
2019-04-14T04:29:52.681Z,17.03
2019-04-14T04:31:02.441Z,17.70
2019-04-14T04:32:31.899Z,16.43
2019-04-14T04:33:54.452Z,18.23
2019-04-14T04:35:23.918Z,18.67
2019-04-14T04:36:57.403Z,17.53
2019-04-14T04:38:09.513Z,18.13
2019-04-14T04:39:21.411Z,18.00
2019-04-14T04:40:28.924Z,17.67
2019-04-14T04:41:33.909Z,19.10
2019-04-14T04:42:37.734Z,18.63
2019-04-14T04:43:41.313Z,19.33
2019-04-14T04:44:44.882Z,21.07
2019-04-14T04:45:49.443Z,17.83
2019-04-14T04:46:53.290Z,19.67
2019-04-14T04:47:57.705Z,18.03
2019-04-14T04:49:10.859Z,18.20
2019-04-14T04:50:07.014Z,18.13
2019-04-14T04:51:11.664Z,19.03
2019-04-14T04:52:15.780Z,16.77
2019-04-14T04:53:20.201Z,17.97
2019-04-14T04:54:24.019Z,17.77
2019-04-14T04:55:28.640Z,18.37
2019-04-14T04:56:32.427Z,17.63
2019-04-14T04:57:37.254Z,18.43
2019-04-14T04:58:41.325Z,17.67
2019-04-14T04:59:45.282Z,17.43
2019-04-14T05:00:52.235Z,18.27
2019-04-14T05:01:54.487Z,17.27
2019-04-14T05:02:59.256Z,17.97
2019-04-14T05:04:03.065Z,17.77
2019-04-14T05:05:25.841Z,19.60
2019-04-14T05:07:07.776Z,17.10
2019-04-14T05:08:13.011Z,19.80
2019-04-14T05:09:21.079Z,21.57
2019-04-14T05:10:34.936Z,17.23
2019-04-14T05:11:43.385Z,19.20
2019-04-14T05:12:54.783Z,17.80
2019-04-14T05:14:00.111Z,19.60
2019-04-14T05:15:27.033Z,18.83
2019-04-14T05:16:30.758Z,19.07
2019-04-14T05:17:34.612Z,17.53
2019-04-14T05:18:38.260Z,19.13
2019-04-14T05:19:42.431Z,18.80
2019-04-14T05:20:47.132Z,18.50
2019-04-14T05:21:51.744Z,17.77
2019-04-14T05:22:55.452Z,18.10
2019-04-14T05:23:59.041Z,15.13
2019-04-14T05:25:03.522Z,19.77
2019-04-14T05:26:07.291Z,19.40
2019-04-14T05:27:10.929Z,18.93
2019-04-14T05:28:15.476Z,17.17
2019-04-14T05:29:19.347Z,18.20
2019-04-14T05:30:24.044Z,16.03
2019-04-14T05:31:29.434Z,16.37
2019-04-14T05:32:33.235Z,16.30
2019-04-14T05:33:36.819Z,17.67
2019-04-14T05:34:41.193Z,16.37
2019-04-14T05:35:44.961Z,17.23
2019-04-14T05:36:49.912Z,16.20
2019-04-14T05:37:55.033Z,15.97
2019-04-14T05:38:58.840Z,15.07
2019-04-14T05:40:03.684Z,14.67
2019-04-14T05:41:07.444Z,17.33
2019-04-14T05:42:17.158Z,15.30
2019-04-14T05:43:29.203Z,16.87
2019-04-14T05:44:23.068Z,17.23
2019-04-14T05:45:26.854Z,14.37
2019-04-14T05:46:31.641Z,15.53
2019-04-14T05:47:35.351Z,15.27
2019-04-14T05:48:40.292Z,15.67
2019-04-14T05:49:48.267Z,14.77
2019-04-14T05:50:49.449Z,14.30
2019-04-14T05:51:53.064Z,16.27
2019-04-14T05:52:57.833Z,14.97
2019-04-14T05:54:01.654Z,14.00
2019-04-14T05:55:06.627Z,15.07
2019-04-14T05:56:10.286Z,14.57
2019-04-14T05:57:13.980Z,15.43
2019-04-14T05:58:18.567Z,16.27
2019-04-14T05:59:22.345Z,14.80
2019-04-14T06:00:26.093Z,16.00
2019-04-14T06:01:29.659Z,14.20
2019-04-14T06:02:33.588Z,16.03
2019-04-14T06:03:38.542Z,17.27
2019-04-14T06:04:42.489Z,13.47
2019-04-14T06:05:46.047Z,14.77
2019-04-14T06:06:49.981Z,13.83
2019-04-14T06:07:55.521Z,15.30
2019-04-14T06:08:58.947Z,15.23
2019-04-14T06:10:02.615Z,15.03
2019-04-14T06:11:06.245Z,14.77
2019-04-14T06:12:09.893Z,15.13
2019-04-14T06:13:13.470Z,15.80
2019-04-14T06:14:17.106Z,14.80
2019-04-14T06:15:20.693Z,15.93
2019-04-14T06:16:24.266Z,15.43
2019-04-14T06:17:28.029Z,16.33
2019-04-14T06:18:31.743Z,14.30
2019-04-14T06:19:38.014Z,14.10
2019-04-14T06:20:40.653Z,15.57
2019-04-14T06:21:44.229Z,14.83
2019-04-14T06:22:47.789Z,14.13
2019-04-14T06:23:51.409Z,12.83
2019-04-14T06:24:55.017Z,14.73
2019-04-14T06:25:58.637Z,14.20
2019-04-14T06:27:02.191Z,14.30
2019-04-14T06:28:05.763Z,13.87
2019-04-14T06:29:09.340Z,16.33
2019-04-14T06:30:27.131Z,13.80
2019-04-14T06:32:01.973Z,14.90
2019-04-14T06:33:12.711Z,13.37
2019-04-14T06:34:24.507Z,14.53
2019-04-14T06:35:56.541Z,14.53
2019-04-14T06:37:19.254Z,14.00
2019-04-14T06:38:26.387Z,15.67
2019-04-14T06:39:33.249Z,14.10
2019-04-14T06:40:41.353Z,23.23
2019-04-14T06:41:44.955Z,16.00
2019-04-14T06:42:48.613Z,14.27
2019-04-14T06:43:52.176Z,13.17
2019-04-14T06:44:55.739Z,16.30
2019-04-14T06:45:59.373Z,15.50
2019-04-14T06:47:03.070Z,14.00
2019-04-14T06:48:06.797Z,14.47
2019-04-14T06:49:10.368Z,15.13
2019-04-14T06:50:14.017Z,13.47
2019-04-14T06:51:17.599Z,16.50
2019-04-14T06:52:21.182Z,12.97
2019-04-14T06:53:24.746Z,16.20
2019-04-14T06:54:28.317Z,14.17
2019-04-14T06:55:31.895Z,15.23
2019-04-14T06:56:35.611Z,13.20
2019-04-14T06:57:39.205Z,14.77
2019-04-14T06:58:42.993Z,15.03
2019-04-14T06:59:46.555Z,14.67
2019-04-14T07:00:50.177Z,14.43
2019-04-14T07:01:53.850Z,15.17
2019-04-14T07:02:57.542Z,14.57
2019-04-14T07:04:01.220Z,16.10
2019-04-14T07:05:04.918Z,15.40
2019-04-14T07:06:08.548Z,15.27
2019-04-14T07:07:12.166Z,14.10
2019-04-14T07:08:15.907Z,13.57
2019-04-14T07:09:19.632Z,15.23
2019-04-14T07:10:23.339Z,14.10
2019-04-14T07:11:27.063Z,15.57
2019-04-14T07:12:30.700Z,14.20
2019-04-14T07:13:34.345Z,13.43
2019-04-14T07:14:37.959Z,14.47
2019-04-14T07:15:41.650Z,14.67
2019-04-14T07:16:45.356Z,15.37
2019-04-14T07:17:49.146Z,14.60
2019-04-14T07:18:52.899Z,14.87
2019-04-14T07:20:02.362Z,14.77
2019-04-14T07:21:03.157Z,14.97
2019-04-14T07:22:07.415Z,13.17
2019-04-14T07:23:11.656Z,14.20
2019-04-14T07:24:15.984Z,13.70
2019-04-14T07:25:20.293Z,12.88
2019-04-14T07:26:24.530Z,14.77
2019-04-14T07:27:28.699Z,12.50
2019-04-14T07:28:32.933Z,13.55
2019-04-14T07:29:45.997Z,15.57
2019-04-14T07:31:08.144Z,13.38
2019-04-14T07:32:37.352Z,11.83
2019-04-14T07:34:03.655Z,12.63
2019-04-14T07:35:23.374Z,14.47
2019-04-14T07:36:45.529Z,14.15
2019-04-14T07:37:57.290Z,13.25
2019-04-14T07:39:29.876Z,11.80
2019-04-14T07:40:51.076Z,14.25
2019-04-14T07:42:14.306Z,12.10
2019-04-14T07:43:37.490Z,15.58
2019-04-14T07:45:02.678Z,13.13
2019-04-14T07:46:25.874Z,12.33
2019-04-14T07:47:37.511Z,14.00
2019-04-14T07:48:48.152Z,12.60
2019-04-14T07:50:20.610Z,11.43
2019-04-14T07:51:47.877Z,12.50
2019-04-14T07:53:18.606Z,12.00
2019-04-14T07:54:32.424Z,12.93
2019-04-14T07:55:46.588Z,13.18
2019-04-14T07:56:58.663Z,13.48
2019-04-14T07:58:16.697Z,12.53
2019-04-14T07:59:54.942Z,12.98
2019-04-14T08:01:04.422Z,11.75
2019-04-14T08:02:21.136Z,13.00
2019-04-14T08:03:57.468Z,12.25
2019-04-14T08:05:07.046Z,12.10
2019-04-14T08:06:11.198Z,12.65
2019-04-14T08:07:15.458Z,12.55
2019-04-14T08:08:19.647Z,12.33
2019-04-14T08:09:23.812Z,12.30
2019-04-14T08:10:28.034Z,13.00
2019-04-14T08:11:32.219Z,12.33
2019-04-14T08:12:36.376Z,12.03
2019-04-14T08:13:40.552Z,12.93
2019-04-14T08:14:44.746Z,13.35
2019-04-14T08:15:48.951Z,12.70
2019-04-14T08:16:53.179Z,12.58
2019-04-14T08:17:57.362Z,12.85
2019-04-14T08:19:01.612Z,11.53
2019-04-14T08:20:06.261Z,13.68
2019-04-14T08:21:09.877Z,15.78
2019-04-14T08:22:13.447Z,11.73
2019-04-14T08:23:17.087Z,11.78
2019-04-14T08:24:20.688Z,11.35
2019-04-14T08:25:24.429Z,12.88
2019-04-14T08:26:28.079Z,11.73
2019-04-14T08:27:31.673Z,11.48
2019-04-14T08:28:35.949Z,12.37
2019-04-14T08:29:39.553Z,12.07
2019-04-14T08:30:43.735Z,12.45
2019-04-14T08:31:47.999Z,12.25
2019-04-14T08:32:52.164Z,12.73
2019-04-14T08:33:56.344Z,12.75
2019-04-14T08:35:00.632Z,12.25
2019-04-14T08:36:04.918Z,12.60
2019-04-14T08:37:09.163Z,11.97
2019-04-14T08:38:13.411Z,12.37
2019-04-14T08:39:17.919Z,12.65
2019-04-14T08:40:22.119Z,13.40
2019-04-14T08:41:28.127Z,15.08
2019-04-14T08:42:52.133Z,13.70
2019-04-14T08:44:11.196Z,20.57
2019-04-14T08:45:40.555Z,19.48
2019-04-14T08:47:03.780Z,14.28
2019-04-14T08:48:30.081Z,14.18
2019-04-14T08:49:42.343Z,14.03
2019-04-14T08:50:52.705Z,12.98
2019-04-14T08:52:31.007Z,12.93
2019-04-14T08:53:45.866Z,13.03
2019-04-14T08:54:57.734Z,13.22
2019-04-14T08:56:27.173Z,13.45
2019-04-14T08:57:46.464Z,13.43
2019-04-14T08:59:18.669Z,13.53
2019-04-14T09:00:45.928Z,13.58
2019-04-14T09:01:59.568Z,12.75
2019-04-14T09:03:12.782Z,13.90
2019-04-14T09:04:44.808Z,13.60
2019-04-14T09:06:08.092Z,14.68
2019-04-14T09:07:22.320Z,14.28
2019-04-14T09:08:33.362Z,12.82
2019-04-14T09:09:41.050Z,14.80
2019-04-14T09:10:48.121Z,14.35
2019-04-14T09:12:14.590Z,14.75
2019-04-14T09:13:07.444Z,14.83
2019-04-14T09:14:11.593Z,14.45
2019-04-14T09:15:16.181Z,14.80
2019-04-14T09:16:20.349Z,14.55
2019-04-14T09:17:25.692Z,14.33
2019-04-14T09:18:29.887Z,15.28
2019-04-14T09:19:34.074Z,17.00
2019-04-14T09:20:38.272Z,13.90
2019-04-14T09:21:42.516Z,15.75
2019-04-14T09:22:46.785Z,15.25
2019-04-14T09:23:51.092Z,13.45
2019-04-14T09:24:55.303Z,14.75
2019-04-14T09:25:59.555Z,14.50
2019-04-14T09:27:04.497Z,13.70
2019-04-14T09:28:08.831Z,13.18
2019-04-14T09:29:13.054Z,14.23
2019-04-14T09:30:17.465Z,13.15
2019-04-14T09:31:21.721Z,13.80
2019-04-14T09:32:26.770Z,13.32
2019-04-14T09:33:30.974Z,13.65
2019-04-14T09:34:35.165Z,13.98
2019-04-14T09:35:39.335Z,14.47
2019-04-14T09:36:43.538Z,14.15
2019-04-14T09:37:47.724Z,13.55
2019-04-14T09:38:51.914Z,15.45
2019-04-14T09:39:56.107Z,14.60
2019-04-14T09:41:00.899Z,14.80
2019-04-14T09:42:05.179Z,14.38
2019-04-14T09:43:09.366Z,14.40
2019-04-14T09:44:13.614Z,14.47
2019-04-14T09:45:17.798Z,14.50
2019-04-14T09:46:22.029Z,14.75
2019-04-14T09:47:26.316Z,15.00
2019-04-14T09:48:30.797Z,14.68
2019-04-14T09:49:35.095Z,15.68
2019-04-14T09:50:39.329Z,15.15
2019-04-14T09:51:43.604Z,15.10
2019-04-14T09:52:47.833Z,15.08
2019-04-14T09:53:52.024Z,15.15
2019-04-14T09:54:56.250Z,14.85
2019-04-14T09:56:00.523Z,14.75
2019-04-14T09:57:04.982Z,14.58
2019-04-14T09:58:09.125Z,15.28
2019-04-14T09:59:13.380Z,15.75
2019-04-14T10:00:19.950Z,14.78
2019-04-14T10:01:24.530Z,14.63
2019-04-14T10:02:28.863Z,14.53
2019-04-14T10:03:33.117Z,14.93
2019-04-14T10:04:37.445Z,14.05
2019-04-14T10:05:41.703Z,14.78
2019-04-14T10:06:45.849Z,14.45
2019-04-14T10:07:50.711Z,15.80
2019-04-14T10:08:54.989Z,16.12
2019-04-14T10:09:59.261Z,14.43
2019-04-14T10:11:03.567Z,14.95
2019-04-14T10:12:07.829Z,15.03
2019-04-14T10:13:12.025Z,14.83
2019-04-14T10:14:16.287Z,14.40
2019-04-14T10:15:20.491Z,15.60
2019-04-14T10:16:24.677Z,16.85
2019-04-14T10:17:28.865Z,20.72
2019-04-14T10:18:33.047Z,19.70
2019-04-14T10:19:37.211Z,17.17
2019-04-14T10:20:41.411Z,15.55
2019-04-14T10:21:45.682Z,15.32
2019-04-14T10:22:49.861Z,15.08
2019-04-14T10:23:54.009Z,16.90
2019-04-14T10:24:58.271Z,14.35
2019-04-14T10:26:02.479Z,13.65
2019-04-14T10:27:06.649Z,13.15
2019-04-14T10:28:10.909Z,13.10
2019-04-14T10:29:15.109Z,19.10
2019-04-14T10:30:19.275Z,13.78
2019-04-14T10:31:23.619Z,14.38
2019-04-14T10:32:27.832Z,24.63
2019-04-14T10:33:32.072Z,13.35
2019-04-14T10:34:36.279Z,13.95
2019-04-14T10:35:40.531Z,14.20
2019-04-14T10:36:44.786Z,13.30
2019-04-14T10:37:48.969Z,14.18
2019-04-14T10:38:53.204Z,14.23
2019-04-14T10:39:57.373Z,13.88
2019-04-14T10:41:01.533Z,12.95
2019-04-14T10:42:05.979Z,14.00
2019-04-14T10:43:10.145Z,14.38
2019-04-14T10:44:14.410Z,13.35
2019-04-14T10:45:18.674Z,13.00
2019-04-14T10:46:22.937Z,13.72
2019-04-14T10:47:27.110Z,15.10
2019-04-14T10:48:31.353Z,13.93
2019-04-14T10:49:35.560Z,13.95
2019-04-14T10:50:39.757Z,13.00
2019-04-14T10:51:43.927Z,12.98
2019-04-14T10:52:48.166Z,12.63
2019-04-14T10:53:52.349Z,12.20
2019-04-14T10:54:56.518Z,12.53
2019-04-14T10:56:00.720Z,12.43
2019-04-14T10:57:05.081Z,12.65
2019-04-14T10:58:09.271Z,13.10
2019-04-14T10:59:13.449Z,12.55
2019-04-14T11:00:18.005Z,12.82
2019-04-14T11:01:22.177Z,12.03
2019-04-14T11:02:26.337Z,13.05
2019-04-14T11:03:30.524Z,13.13
2019-04-14T11:04:34.680Z,12.75
2019-04-14T11:05:46.874Z,13.50
2019-04-14T11:07:01.539Z,12.50
2019-04-14T11:08:05.941Z,12.53
2019-04-14T11:09:15.141Z,14.03
2019-04-14T11:10:19.338Z,12.98
2019-04-14T11:11:23.501Z,13.75
2019-04-14T11:12:27.767Z,14.07
2019-04-14T11:13:31.969Z,13.43
2019-04-14T11:14:36.129Z,13.88
2019-04-14T11:15:40.327Z,14.15
2019-04-14T11:16:44.521Z,14.03
2019-04-14T11:17:48.768Z,14.53
2019-04-14T11:18:54.159Z,13.93
2019-04-14T11:19:58.707Z,14.57
2019-04-14T11:21:22.034Z,13.35
2019-04-14T11:22:26.178Z,15.40
2019-04-14T11:23:30.453Z,14.30
2019-04-14T11:24:34.627Z,13.30
2019-04-14T11:25:38.860Z,14.80
2019-04-14T11:26:43.140Z,15.50
2019-04-14T11:27:47.397Z,13.83
2019-04-14T11:28:51.653Z,13.53
2019-04-14T11:29:55.862Z,15.10
2019-04-14T11:31:00.113Z,15.75
2019-04-14T11:32:27.405Z,12.95
2019-04-14T11:33:34.085Z,12.78
2019-04-14T11:34:49.877Z,13.35
2019-04-14T11:36:13.082Z,13.25
2019-04-14T11:37:35.578Z,13.45
2019-04-14T11:38:44.674Z,13.00
2019-04-14T11:39:48.835Z,12.88
2019-04-14T11:40:55.779Z,13.25
2019-04-14T11:42:00.634Z,13.20
2019-04-14T11:43:05.076Z,14.75
2019-04-14T11:44:28.376Z,12.87
2019-04-14T11:45:32.635Z,13.55
2019-04-14T11:46:36.889Z,13.50
2019-04-14T11:47:41.153Z,13.80
2019-04-14T11:48:45.420Z,12.58
2019-04-14T11:49:49.671Z,14.03
2019-04-14T11:50:53.857Z,13.10
2019-04-14T11:51:58.031Z,13.40
2019-04-14T11:53:02.292Z,13.20
2019-04-14T11:54:06.490Z,13.13
2019-04-14T11:55:10.854Z,13.43
2019-04-14T11:56:15.168Z,12.47
2019-04-14T11:57:19.535Z,12.63
2019-04-14T11:58:23.690Z,13.20
2019-04-14T11:59:45.722Z,13.50
2019-04-14T12:01:05.319Z,13.38
2019-04-14T12:02:27.208Z,12.93
2019-04-14T12:03:43.397Z,15.88
2019-04-14T12:05:12.809Z,14.45
2019-04-14T12:06:48.061Z,13.65
2019-04-14T12:08:05.865Z,13.80
2019-04-14T12:09:22.783Z,13.28
2019-04-14T12:10:29.648Z,12.93
2019-04-14T12:11:33.846Z,13.67
2019-04-14T12:12:38.142Z,13.88
2019-04-14T12:13:42.306Z,14.83
2019-04-14T12:14:46.490Z,14.05
2019-04-14T12:15:50.670Z,14.47
2019-04-14T12:16:54.870Z,14.95
2019-04-14T12:17:59.238Z,14.33
2019-04-14T12:19:03.411Z,15.13
2019-04-14T12:20:09.686Z,16.17
2019-04-14T12:21:13.838Z,14.23
2019-04-14T12:22:18.141Z,15.05
2019-04-14T12:23:22.300Z,15.13
2019-04-14T12:24:26.497Z,15.40
2019-04-14T12:25:30.660Z,15.73
2019-04-14T12:26:42.182Z,14.15
2019-04-14T12:27:46.616Z,15.45
2019-04-14T12:28:51.578Z,14.87
2019-04-14T12:29:56.690Z,15.13
2019-04-14T12:31:01.972Z,16.35
2019-04-14T12:32:08.525Z,15.58
2019-04-14T12:33:12.798Z,15.27
2019-04-14T12:34:18.417Z,15.90
2019-04-14T12:35:22.842Z,15.08
2019-04-14T12:36:27.392Z,16.15
2019-04-14T12:37:31.611Z,16.12
2019-04-14T12:38:35.820Z,14.80
2019-04-14T12:39:40.048Z,15.43
2019-04-14T12:40:44.411Z,15.20
2019-04-14T12:41:56.904Z,14.33
2019-04-14T12:43:07.005Z,15.03
2019-04-14T12:44:29.210Z,15.38
2019-04-14T12:45:58.565Z,15.00
2019-04-14T12:47:12.488Z,15.28
2019-04-14T12:48:30.367Z,17.60
2019-04-14T12:49:38.721Z,14.87
2019-04-14T12:50:55.648Z,15.80
2019-04-14T12:52:33.972Z,15.38
2019-04-14T12:53:38.237Z,14.80
2019-04-14T12:54:42.456Z,15.93
2019-04-14T12:55:46.678Z,15.13
2019-04-14T12:56:50.881Z,15.30
2019-04-14T12:57:57.830Z,14.83
2019-04-14T12:59:23.093Z,15.05
2019-04-14T13:00:48.159Z,30.77
2019-04-14T13:02:11.287Z,19.25
2019-04-14T13:03:15.995Z,14.18
2019-04-14T13:04:20.502Z,13.28
2019-04-14T13:05:24.650Z,12.03
2019-04-14T13:06:28.883Z,10.35
2019-04-14T13:07:33.140Z,10.18
2019-04-14T13:08:37.367Z,10.85
2019-04-14T13:09:41.580Z,11.12
2019-04-14T13:10:45.238Z,11.20
2019-04-14T13:11:48.963Z,10.82
2019-04-14T13:12:52.617Z,10.35
2019-04-14T13:13:56.277Z,10.43
2019-04-14T13:15:02.714Z,10.30
2019-04-14T13:16:05.307Z,11.30
2019-04-14T13:17:08.902Z,10.78
2019-04-14T13:18:12.574Z,10.20
2019-04-14T13:19:16.148Z,10.88
2019-04-14T13:20:19.821Z,11.83
2019-04-14T13:21:23.479Z,11.43
2019-04-14T13:22:33.771Z,10.95
2019-04-14T13:23:32.528Z,11.22
2019-04-14T13:24:36.094Z,10.85
2019-04-14T13:25:39.718Z,10.70
2019-04-14T13:26:43.386Z,10.32
2019-04-14T13:27:47.060Z,9.63
2019-04-14T13:28:50.781Z,10.23
2019-04-14T13:29:54.435Z,9.58
2019-04-14T13:30:58.111Z,8.85
2019-04-14T13:32:01.759Z,9.20
2019-04-14T13:33:05.540Z,9.53
2019-04-14T13:34:09.188Z,8.95
2019-04-14T13:35:12.842Z,9.23
2019-04-14T13:36:16.510Z,8.63
2019-04-14T13:37:20.236Z,9.00
2019-04-14T13:38:24.097Z,8.78
2019-04-14T13:39:27.744Z,8.73
2019-04-14T13:40:31.487Z,8.85
2019-04-14T13:41:35.698Z,8.65
2019-04-14T13:42:39.372Z,8.90
2019-04-14T13:43:43.069Z,10.18
2019-04-14T13:44:46.654Z,9.33
2019-04-14T13:45:50.318Z,9.88
2019-04-14T13:46:54.017Z,9.88
2019-04-14T13:47:57.730Z,9.03
2019-04-14T13:49:01.407Z,8.98
2019-04-14T13:50:05.764Z,8.58
2019-04-14T13:51:09.466Z,8.93
2019-04-14T13:52:13.144Z,9.33
2019-04-14T13:53:16.803Z,9.13
2019-04-14T13:54:20.723Z,8.58
2019-04-14T13:55:24.367Z,9.43
2019-04-14T13:56:28.034Z,8.60
2019-04-14T13:57:32.039Z,9.25
2019-04-14T13:58:38.090Z,9.15
2019-04-14T13:59:40.933Z,8.20
2019-04-14T14:00:44.596Z,8.13
2019-04-14T14:01:48.261Z,8.63
2019-04-14T14:02:51.941Z,8.50
2019-04-14T14:03:55.550Z,7.85
2019-04-14T14:04:59.132Z,8.88
2019-04-14T14:06:02.830Z,9.78
2019-04-14T14:07:06.886Z,18.95
2019-04-14T14:08:10.568Z,10.18
2019-04-14T14:09:14.262Z,12.30
2019-04-14T14:10:18.138Z,10.43
2019-04-14T14:11:28.469Z,10.40
2019-04-14T14:12:36.775Z,9.08
2019-04-14T14:13:48.088Z,8.68
2019-04-14T14:15:13.915Z,9.00
2019-04-14T14:16:28.724Z,8.93
2019-04-14T14:17:41.820Z,9.30
2019-04-14T14:18:50.579Z,9.23
2019-04-14T14:20:02.527Z,8.98
2019-04-14T14:21:43.752Z,10.10
2019-04-14T14:23:15.690Z,9.05
2019-04-14T14:24:53.633Z,8.95
2019-04-14T14:26:02.925Z,9.17
2019-04-14T14:27:07.880Z,8.67
2019-04-14T14:28:11.533Z,9.17
2019-04-14T14:29:15.204Z,9.23
2019-04-14T14:30:20.136Z,9.13
2019-04-14T14:31:23.872Z,9.00
2019-04-14T14:32:36.665Z,9.03
2019-04-14T14:33:40.324Z,9.67
2019-04-14T14:34:44.003Z,9.13
2019-04-14T14:35:47.600Z,10.48
2019-04-14T14:36:51.249Z,9.60
2019-04-14T14:37:54.917Z,9.13
2019-04-14T14:38:58.606Z,10.33
2019-04-14T14:40:02.256Z,9.97
2019-04-14T14:41:09.006Z,9.73
2019-04-14T14:42:12.655Z,9.70
2019-04-14T14:43:16.329Z,10.00
2019-04-14T14:44:20.716Z,9.28
2019-04-14T14:45:42.289Z,9.73
2019-04-14T14:47:10.847Z,10.40
2019-04-14T14:48:26.621Z,8.75
2019-04-14T14:49:52.466Z,9.23